sensor_id;sensor_type;location;lat;lon;timestamp;temperature;humidity
6333;DHT22;3199;49.102;8.856;2023-04-30T00:01:41;12.00;99.90
6333;DHT22;3199;49.102;8.856;2023-04-30T00:04:06;12.00;99.90
6333;DHT22;3199;49.102;8.856;2023-04-30T00:06:32;12.00;99.90
6333;DHT22;3199;49.102;8.856;2023-04-30T00:08:57;12.00;99.90
6333;DHT22;3199;49.102;8.856;2023-04-30T00:11:23;12.00;99.90
6333;DHT22;3199;49.102;8.856;2023-04-30T00:13:50;12.00;99.90
6333;DHT22;3199;49.102;8.856;2023-04-30T00:16:16;11.90;99.90
6333;DHT22;3199;49.102;8.856;2023-04-30T00:18:42;11.90;99.90
6333;DHT22;3199;49.102;8.856;2023-04-30T00:21:07;11.90;99.90
6333;DHT22;3199;49.102;8.856;2023-04-30T00:23:33;11.90;99.90
6333;DHT22;3199;49.102;8.856;2023-04-30T00:25:58;12.00;99.90
6333;DHT22;3199;49.102;8.856;2023-04-30T00:28:24;12.00;99.90
6333;DHT22;3199;49.102;8.856;2023-04-30T00:30:49;11.90;99.90
6333;DHT22;3199;49.102;8.856;2023-04-30T00:33:15;11.90;99.90
6333;DHT22;3199;49.102;8.856;2023-04-30T00:35:41;11.90;99.90
6333;DHT22;3199;49.102;8.856;2023-04-30T00:38:06;11.90;99.90
6333;DHT22;3199;49.102;8.856;2023-04-30T00:40:34;11.90;99.90
6333;DHT22;3199;49.102;8.856;2023-04-30T00:42:59;11.90;99.90
6333;DHT22;3199;49.102;8.856;2023-04-30T00:45:25;11.90;99.90
6333;DHT22;3199;49.102;8.856;2023-04-30T00:47:50;11.90;99.90
6333;DHT22;3199;49.102;8.856;2023-04-30T00:50:16;11.90;99.90
6333;DHT22;3199;49.102;8.856;2023-04-30T00:52:42;11.90;99.90
6333;DHT22;3199;49.102;8.856;2023-04-30T00:55:09;11.90;99.90
6333;DHT22;3199;49.102;8.856;2023-04-30T00:57:35;11.90;99.90
6333;DHT22;3199;49.102;8.856;2023-04-30T01:00:02;12.00;99.90
6333;DHT22;3199;49.102;8.856;2023-04-30T01:02:29;11.90;99.90
6333;DHT22;3199;49.102;8.856;2023-04-30T01:04:56;11.90;99.90
6333;DHT22;3199;49.102;8.856;2023-04-30T01:07:21;11.90;99.90
6333;DHT22;3199;49.102;8.856;2023-04-30T01:09:47;11.90;99.90
6333;DHT22;3199;49.102;8.856;2023-04-30T01:12:27;11.80;99.90
6333;DHT22;3199;49.102;8.856;2023-04-30T01:15:11;11.90;99.90
6333;DHT22;3199;49.102;8.856;2023-04-30T01:20:53;11.80;99.90
6333;DHT22;3199;49.102;8.856;2023-04-30T01:28:45;11.80;99.90
6333;DHT22;3199;49.102;8.856;2023-04-30T01:31:13;11.80;99.90
6333;DHT22;3199;49.102;8.856;2023-04-30T01:33:38;11.80;99.90
6333;DHT22;3199;49.102;8.856;2023-04-30T01:36:20;11.80;99.90
6333;DHT22;3199;49.102;8.856;2023-04-30T01:41:49;11.80;99.90
6333;DHT22;3199;49.102;8.856;2023-04-30T01:44:40;11.80;99.90
6333;DHT22;3199;49.102;8.856;2023-04-30T01:50:06;11.80;99.90
6333;DHT22;3199;49.102;8.856;2023-04-30T01:52:42;11.80;99.90
6333;DHT22;3199;49.102;8.856;2023-04-30T01:55:27;11.80;99.90
6333;DHT22;3199;49.102;8.856;2023-04-30T01:57:56;11.80;99.90
6333;DHT22;3199;49.102;8.856;2023-04-30T02:00:26;11.70;99.90
6333;DHT22;3199;49.102;8.856;2023-04-30T02:02:52;11.80;99.90
6333;DHT22;3199;49.102;8.856;2023-04-30T02:05:17;11.70;99.90
6333;DHT22;3199;49.102;8.856;2023-04-30T02:07:45;11.70;99.90
6333;DHT22;3199;49.102;8.856;2023-04-30T02:10:12;11.70;99.90
6333;DHT22;3199;49.102;8.856;2023-04-30T02:12:38;11.70;99.90
6333;DHT22;3199;49.102;8.856;2023-04-30T02:15:05;11.70;99.90
6333;DHT22;3199;49.102;8.856;2023-04-30T02:17:31;11.70;99.90
6333;DHT22;3199;49.102;8.856;2023-04-30T02:19:57;11.70;99.90
6333;DHT22;3199;49.102;8.856;2023-04-30T02:22:23;11.70;99.90
6333;DHT22;3199;49.102;8.856;2023-04-30T02:24:48;11.60;99.90
6333;DHT22;3199;49.102;8.856;2023-04-30T02:27:14;11.60;99.90
6333;DHT22;3199;49.102;8.856;2023-04-30T02:29:40;11.60;99.90
6333;DHT22;3199;49.102;8.856;2023-04-30T02:32:06;11.50;99.90
6333;DHT22;3199;49.102;8.856;2023-04-30T02:34:31;11.50;99.90
6333;DHT22;3199;49.102;8.856;2023-04-30T02:36:57;11.50;99.90
6333;DHT22;3199;49.102;8.856;2023-04-30T02:39:22;11.50;99.90
6333;DHT22;3199;49.102;8.856;2023-04-30T02:41:48;11.50;99.90
6333;DHT22;3199;49.102;8.856;2023-04-30T02:44:14;11.50;99.90
6333;DHT22;3199;49.102;8.856;2023-04-30T02:46:40;11.50;99.90
6333;DHT22;3199;49.102;8.856;2023-04-30T02:49:05;11.40;99.90
6333;DHT22;3199;49.102;8.856;2023-04-30T02:51:31;11.40;99.90
6333;DHT22;3199;49.102;8.856;2023-04-30T02:53:57;11.40;99.90
6333;DHT22;3199;49.102;8.856;2023-04-30T02:56:22;11.50;99.90
6333;DHT22;3199;49.102;8.856;2023-04-30T02:58:48;11.40;99.90
6333;DHT22;3199;49.102;8.856;2023-04-30T03:01:14;11.40;99.90
6333;DHT22;3199;49.102;8.856;2023-04-30T03:03:39;11.40;99.90
6333;DHT22;3199;49.102;8.856;2023-04-30T03:06:05;11.40;99.90
6333;DHT22;3199;49.102;8.856;2023-04-30T03:08:31;11.30;99.90
6333;DHT22;3199;49.102;8.856;2023-04-30T03:10:56;11.30;99.90
6333;DHT22;3199;49.102;8.856;2023-04-30T03:13:22;11.30;99.90
6333;DHT22;3199;49.102;8.856;2023-04-30T03:15:59;11.30;99.90
6333;DHT22;3199;49.102;8.856;2023-04-30T03:18:26;11.30;99.90
6333;DHT22;3199;49.102;8.856;2023-04-30T03:20:52;11.20;99.90
6333;DHT22;3199;49.102;8.856;2023-04-30T03:23:17;11.20;99.90
6333;DHT22;3199;49.102;8.856;2023-04-30T03:25:43;11.20;99.90
6333;DHT22;3199;49.102;8.856;2023-04-30T03:28:08;11.20;99.90
6333;DHT22;3199;49.102;8.856;2023-04-30T03:30:34;11.20;99.90
6333;DHT22;3199;49.102;8.856;2023-04-30T03:32:59;11.10;99.90
6333;DHT22;3199;49.102;8.856;2023-04-30T03:35:25;11.10;99.90
6333;DHT22;3199;49.102;8.856;2023-04-30T03:37:50;11.10;99.90
6333;DHT22;3199;49.102;8.856;2023-04-30T03:40:16;11.10;99.90
6333;DHT22;3199;49.102;8.856;2023-04-30T03:42:41;11.10;99.90
6333;DHT22;3199;49.102;8.856;2023-04-30T03:45:07;11.10;99.90
6333;DHT22;3199;49.102;8.856;2023-04-30T03:47:34;11.10;99.90
6333;DHT22;3199;49.102;8.856;2023-04-30T03:50:00;11.00;99.90
6333;DHT22;3199;49.102;8.856;2023-04-30T03:52:25;11.00;99.90
6333;DHT22;3199;49.102;8.856;2023-04-30T03:54:51;11.00;99.90
6333;DHT22;3199;49.102;8.856;2023-04-30T03:57:17;11.00;99.90
6333;DHT22;3199;49.102;8.856;2023-04-30T03:59:42;11.00;99.90
6333;DHT22;3199;49.102;8.856;2023-04-30T04:02:08;11.00;99.90
6333;DHT22;3199;49.102;8.856;2023-04-30T04:04:34;11.00;99.90
6333;DHT22;3199;49.102;8.856;2023-04-30T04:06:59;11.00;99.90
6333;DHT22;3199;49.102;8.856;2023-04-30T04:09:27;11.00;99.90
6333;DHT22;3199;49.102;8.856;2023-04-30T04:11:52;10.90;99.90
6333;DHT22;3199;49.102;8.856;2023-04-30T04:14:18;10.90;99.90
6333;DHT22;3199;49.102;8.856;2023-04-30T04:16:43;10.90;99.90
6333;DHT22;3199;49.102;8.856;2023-04-30T04:19:09;10.90;99.90
6333;DHT22;3199;49.102;8.856;2023-04-30T04:21:35;10.90;99.90
6333;DHT22;3199;49.102;8.856;2023-04-30T04:24:00;10.90;99.90
6333;DHT22;3199;49.102;8.856;2023-04-30T04:26:35;10.90;99.90
6333;DHT22;3199;49.102;8.856;2023-04-30T04:29:02;10.90;99.90
6333;DHT22;3199;49.102;8.856;2023-04-30T04:31:29;10.90;99.90
6333;DHT22;3199;49.102;8.856;2023-04-30T04:33:55;10.90;99.90
6333;DHT22;3199;49.102;8.856;2023-04-30T04:36:26;10.90;99.90
6333;DHT22;3199;49.102;8.856;2023-04-30T04:38:53;10.90;99.90
6333;DHT22;3199;49.102;8.856;2023-04-30T04:41:20;10.90;99.90
6333;DHT22;3199;49.102;8.856;2023-04-30T04:43:46;11.00;99.90
6333;DHT22;3199;49.102;8.856;2023-04-30T04:46:11;11.00;99.90
6333;DHT22;3199;49.102;8.856;2023-04-30T04:48:41;11.00;99.90
6333;DHT22;3199;49.102;8.856;2023-04-30T04:51:06;11.00;99.90
6333;DHT22;3199;49.102;8.856;2023-04-30T04:53:32;11.00;99.90
6333;DHT22;3199;49.102;8.856;2023-04-30T04:55:57;11.00;99.90
6333;DHT22;3199;49.102;8.856;2023-04-30T04:58:23;11.10;99.90
6333;DHT22;3199;49.102;8.856;2023-04-30T05:00:48;11.20;99.90
6333;DHT22;3199;49.102;8.856;2023-04-30T05:03:14;11.20;99.90
6333;DHT22;3199;49.102;8.856;2023-04-30T05:05:39;11.20;99.90
6333;DHT22;3199;49.102;8.856;2023-04-30T05:08:05;11.30;99.90
6333;DHT22;3199;49.102;8.856;2023-04-30T05:10:30;11.30;99.90
6333;DHT22;3199;49.102;8.856;2023-04-30T05:12:56;11.40;99.90
6333;DHT22;3199;49.102;8.856;2023-04-30T05:15:21;11.40;99.90
6333;DHT22;3199;49.102;8.856;2023-04-30T05:17:47;11.50;99.90
6333;DHT22;3199;49.102;8.856;2023-04-30T05:20:12;11.60;99.90
6333;DHT22;3199;49.102;8.856;2023-04-30T05:22:38;11.60;99.90
6333;DHT22;3199;49.102;8.856;2023-04-30T05:25:04;11.70;99.90
6333;DHT22;3199;49.102;8.856;2023-04-30T05:27:30;11.80;99.90
6333;DHT22;3199;49.102;8.856;2023-04-30T05:29:55;12.00;99.90
6333;DHT22;3199;49.102;8.856;2023-04-30T05:32:21;12.10;99.90
6333;DHT22;3199;49.102;8.856;2023-04-30T05:34:47;12.20;99.90
6333;DHT22;3199;49.102;8.856;2023-04-30T05:37:13;12.40;99.90
6333;DHT22;3199;49.102;8.856;2023-04-30T05:39:38;12.50;99.90
6333;DHT22;3199;49.102;8.856;2023-04-30T05:42:04;12.60;99.90
6333;DHT22;3199;49.102;8.856;2023-04-30T05:44:30;12.70;99.90
6333;DHT22;3199;49.102;8.856;2023-04-30T05:46:55;12.80;99.90
6333;DHT22;3199;49.102;8.856;2023-04-30T05:49:21;13.00;99.90
6333;DHT22;3199;49.102;8.856;2023-04-30T05:51:46;13.20;99.90
6333;DHT22;3199;49.102;8.856;2023-04-30T05:54:12;13.50;99.90
6333;DHT22;3199;49.102;8.856;2023-04-30T05:56:37;13.90;99.90
6333;DHT22;3199;49.102;8.856;2023-04-30T05:59:03;14.30;99.90
6333;DHT22;3199;49.102;8.856;2023-04-30T06:01:28;14.90;99.90
6333;DHT22;3199;49.102;8.856;2023-04-30T06:03:54;15.30;99.90
6333;DHT22;3199;49.102;8.856;2023-04-30T06:06:20;15.90;99.90
6333;DHT22;3199;49.102;8.856;2023-04-30T06:08:45;16.50;99.90
6333;DHT22;3199;49.102;8.856;2023-04-30T06:11:12;17.00;99.90
6333;DHT22;3199;49.102;8.856;2023-04-30T06:13:38;17.40;99.10
6333;DHT22;3199;49.102;8.856;2023-04-30T06:16:04;17.90;98.70
6333;DHT22;3199;49.102;8.856;2023-04-30T06:18:30;18.30;97.30
6333;DHT22;3199;49.102;8.856;2023-04-30T06:20:56;18.40;95.30
6333;DHT22;3199;49.102;8.856;2023-04-30T06:23:21;18.50;95.10
6333;DHT22;3199;49.102;8.856;2023-04-30T06:25:47;18.80;94.50
6333;DHT22;3199;49.102;8.856;2023-04-30T06:28:12;19.10;94.30
6333;DHT22;3199;49.102;8.856;2023-04-30T06:30:38;19.20;92.40
6333;DHT22;3199;49.102;8.856;2023-04-30T06:33:05;19.00;92.80
6333;DHT22;3199;49.102;8.856;2023-04-30T06:35:31;19.30;92.20
6333;DHT22;3199;49.102;8.856;2023-04-30T06:37:56;19.40;91.20
6333;DHT22;3199;49.102;8.856;2023-04-30T06:40:22;19.50;91.30
6333;DHT22;3199;49.102;8.856;2023-04-30T06:42:47;19.60;90.90
6333;DHT22;3199;49.102;8.856;2023-04-30T06:45:13;19.60;90.00
6333;DHT22;3199;49.102;8.856;2023-04-30T06:47:40;19.60;89.80
6333;DHT22;3199;49.102;8.856;2023-04-30T06:50:07;19.80;90.00
6333;DHT22;3199;49.102;8.856;2023-04-30T06:52:33;19.80;88.30
6333;DHT22;3199;49.102;8.856;2023-04-30T06:54:58;19.90;88.40
6333;DHT22;3199;49.102;8.856;2023-04-30T06:57:25;20.20;88.00
6333;DHT22;3199;49.102;8.856;2023-04-30T06:59:51;20.20;87.20
6333;DHT22;3199;49.102;8.856;2023-04-30T07:02:17;20.60;86.30
6333;DHT22;3199;49.102;8.856;2023-04-30T07:04:43;20.90;84.70
6333;DHT22;3199;49.102;8.856;2023-04-30T07:07:08;21.00;83.20
6333;DHT22;3199;49.102;8.856;2023-04-30T07:09:34;21.00;82.00
6333;DHT22;3199;49.102;8.856;2023-04-30T07:12:00;21.10;81.90
6333;DHT22;3199;49.102;8.856;2023-04-30T07:14:26;21.20;80.90
6333;DHT22;3199;49.102;8.856;2023-04-30T07:16:52;21.30;80.10
6333;DHT22;3199;49.102;8.856;2023-04-30T07:19:18;21.50;79.80
6333;DHT22;3199;49.102;8.856;2023-04-30T07:21:43;21.70;78.60
6333;DHT22;3199;49.102;8.856;2023-04-30T07:24:09;22.20;77.90
6333;DHT22;3199;49.102;8.856;2023-04-30T07:26:34;22.40;76.80
6333;DHT22;3199;49.102;8.856;2023-04-30T07:29:01;22.80;76.90
6333;DHT22;3199;49.102;8.856;2023-04-30T07:31:26;22.80;75.10
6333;DHT22;3199;49.102;8.856;2023-04-30T07:33:52;22.80;74.30
6333;DHT22;3199;49.102;8.856;2023-04-30T07:36:19;22.70;71.50
6333;DHT22;3199;49.102;8.856;2023-04-30T07:38:45;22.40;73.10
6333;DHT22;3199;49.102;8.856;2023-04-30T07:41:10;22.40;73.10
6333;DHT22;3199;49.102;8.856;2023-04-30T07:43:36;22.50;73.80
6333;DHT22;3199;49.102;8.856;2023-04-30T07:46:01;22.70;72.40
6333;DHT22;3199;49.102;8.856;2023-04-30T07:48:28;22.50;70.90
6333;DHT22;3199;49.102;8.856;2023-04-30T07:50:54;22.40;70.70
6333;DHT22;3199;49.102;8.856;2023-04-30T07:53:21;22.30;72.20
6333;DHT22;3199;49.102;8.856;2023-04-30T07:55:47;22.30;74.00
6333;DHT22;3199;49.102;8.856;2023-04-30T07:58:13;22.70;73.80
6333;DHT22;3199;49.102;8.856;2023-04-30T08:00:38;23.00;71.10
6333;DHT22;3199;49.102;8.856;2023-04-30T08:03:04;22.90;70.60
6333;DHT22;3199;49.102;8.856;2023-04-30T08:05:29;22.80;68.80
6333;DHT22;3199;49.102;8.856;2023-04-30T08:07:55;22.60;69.30
6333;DHT22;3199;49.102;8.856;2023-04-30T08:10:20;22.50;69.20
6333;DHT22;3199;49.102;8.856;2023-04-30T08:12:46;22.70;69.90
6333;DHT22;3199;49.102;8.856;2023-04-30T08:15:12;22.70;68.40
6333;DHT22;3199;49.102;8.856;2023-04-30T08:17:37;22.40;67.70
6333;DHT22;3199;49.102;8.856;2023-04-30T08:20:03;22.10;68.60
6333;DHT22;3199;49.102;8.856;2023-04-30T08:22:29;22.00;70.90
6333;DHT22;3199;49.102;8.856;2023-04-30T08:24:55;22.30;72.10
6333;DHT22;3199;49.102;8.856;2023-04-30T08:27:21;22.70;70.20
6333;DHT22;3199;49.102;8.856;2023-04-30T08:29:47;22.70;68.90
6333;DHT22;3199;49.102;8.856;2023-04-30T08:32:12;22.50;66.60
6333;DHT22;3199;49.102;8.856;2023-04-30T08:34:38;22.40;66.70
6333;DHT22;3199;49.102;8.856;2023-04-30T08:37:08;22.00;66.40
6333;DHT22;3199;49.102;8.856;2023-04-30T08:39:33;21.40;66.70
6333;DHT22;3199;49.102;8.856;2023-04-30T08:42:01;21.10;68.30
6333;DHT22;3199;49.102;8.856;2023-04-30T08:44:28;21.40;71.70
6333;DHT22;3199;49.102;8.856;2023-04-30T08:46:55;21.70;71.00
6333;DHT22;3199;49.102;8.856;2023-04-30T08:49:21;21.90;67.10
6333;DHT22;3199;49.102;8.856;2023-04-30T08:51:47;21.70;66.00
6333;DHT22;3199;49.102;8.856;2023-04-30T08:54:13;21.60;66.00
6333;DHT22;3199;49.102;8.856;2023-04-30T08:56:39;21.40;66.60
6333;DHT22;3199;49.102;8.856;2023-04-30T08:59:05;21.30;67.10
6333;DHT22;3199;49.102;8.856;2023-04-30T09:01:33;21.00;66.10
6333;DHT22;3199;49.102;8.856;2023-04-30T09:03:59;20.90;68.40
6333;DHT22;3199;49.102;8.856;2023-04-30T09:06:24;20.70;69.20
6333;DHT22;3199;49.102;8.856;2023-04-30T09:08:51;20.70;68.60
6333;DHT22;3199;49.102;8.856;2023-04-30T09:11:24;20.60;66.80
6333;DHT22;3199;49.102;8.856;2023-04-30T09:13:51;20.80;67.60
6333;DHT22;3199;49.102;8.856;2023-04-30T09:16:22;20.80;66.30
6333;DHT22;3199;49.102;8.856;2023-04-30T09:18:48;20.60;66.60
6333;DHT22;3199;49.102;8.856;2023-04-30T09:21:14;20.50;66.50
6333;DHT22;3199;49.102;8.856;2023-04-30T09:23:57;20.50;64.80
6333;DHT22;3199;49.102;8.856;2023-04-30T09:28:56;19.90;64.50
6333;DHT22;3199;49.102;8.856;2023-04-30T09:31:23;19.70;64.40
6333;DHT22;3199;49.102;8.856;2023-04-30T09:33:49;19.50;66.20
6333;DHT22;3199;49.102;8.856;2023-04-30T09:36:15;19.30;68.80
6333;DHT22;3199;49.102;8.856;2023-04-30T09:38:41;19.20;68.30
6333;DHT22;3199;49.102;8.856;2023-04-30T09:41:26;19.10;67.00
6333;DHT22;3199;49.102;8.856;2023-04-30T09:43:56;19.00;67.10
6333;DHT22;3199;49.102;8.856;2023-04-30T09:46:32;19.20;68.70
6333;DHT22;3199;49.102;8.856;2023-04-30T09:48:59;19.30;68.40
6333;DHT22;3199;49.102;8.856;2023-04-30T09:51:25;19.20;63.60
6333;DHT22;3199;49.102;8.856;2023-04-30T09:53:52;19.20;65.00
6333;DHT22;3199;49.102;8.856;2023-04-30T09:56:20;19.20;65.00
6333;DHT22;3199;49.102;8.856;2023-04-30T09:58:50;19.20;62.70
6333;DHT22;3199;49.102;8.856;2023-04-30T10:01:18;19.10;63.20
6333;DHT22;3199;49.102;8.856;2023-04-30T10:03:44;19.10;63.70
6333;DHT22;3199;49.102;8.856;2023-04-30T10:06:12;19.10;62.90
6333;DHT22;3199;49.102;8.856;2023-04-30T10:08:40;19.10;62.70
6333;DHT22;3199;49.102;8.856;2023-04-30T10:11:07;19.20;62.50
6333;DHT22;3199;49.102;8.856;2023-04-30T10:16:23;19.00;62.60
6333;DHT22;3199;49.102;8.856;2023-04-30T10:18:53;18.90;63.10
6333;DHT22;3199;49.102;8.856;2023-04-30T10:21:22;18.80;62.60
6333;DHT22;3199;49.102;8.856;2023-04-30T10:23:49;18.80;63.30
6333;DHT22;3199;49.102;8.856;2023-04-30T10:26:14;18.80;63.30
6333;DHT22;3199;49.102;8.856;2023-04-30T10:28:41;18.70;63.00
6333;DHT22;3199;49.102;8.856;2023-04-30T10:31:07;18.80;63.70
6333;DHT22;3199;49.102;8.856;2023-04-30T10:33:42;18.80;63.00
6333;DHT22;3199;49.102;8.856;2023-04-30T10:36:25;18.70;62.70
6333;DHT22;3199;49.102;8.856;2023-04-30T10:38:52;18.70;63.60
6333;DHT22;3199;49.102;8.856;2023-04-30T10:41:19;18.70;63.80
6333;DHT22;3199;49.102;8.856;2023-04-30T10:43:46;18.80;63.10
6333;DHT22;3199;49.102;8.856;2023-04-30T10:46:21;18.80;63.60
6333;DHT22;3199;49.102;8.856;2023-04-30T10:48:47;18.80;61.80
6333;DHT22;3199;49.102;8.856;2023-04-30T10:51:13;18.90;61.60
6333;DHT22;3199;49.102;8.856;2023-04-30T10:53:41;18.90;60.70
6333;DHT22;3199;49.102;8.856;2023-04-30T10:56:07;18.90;60.70
6333;DHT22;3199;49.102;8.856;2023-04-30T10:58:39;18.90;60.50
6333;DHT22;3199;49.102;8.856;2023-04-30T11:01:11;18.80;61.50
6333;DHT22;3199;49.102;8.856;2023-04-30T11:03:40;18.80;61.80
6333;DHT22;3199;49.102;8.856;2023-04-30T11:06:09;18.90;61.20
6333;DHT22;3199;49.102;8.856;2023-04-30T11:08:36;18.90;61.20
6333;DHT22;3199;49.102;8.856;2023-04-30T11:11:02;19.00;61.50
6333;DHT22;3199;49.102;8.856;2023-04-30T11:13:39;19.00;62.80
6333;DHT22;3199;49.102;8.856;2023-04-30T11:16:06;19.00;63.20
6333;DHT22;3199;49.102;8.856;2023-04-30T11:18:32;19.00;64.70
6333;DHT22;3199;49.102;8.856;2023-04-30T11:20:57;18.90;64.60
6333;DHT22;3199;49.102;8.856;2023-04-30T11:23:25;18.90;64.30
6333;DHT22;3199;49.102;8.856;2023-04-30T11:25:53;18.70;63.40
6333;DHT22;3199;49.102;8.856;2023-04-30T11:28:24;18.60;63.40
6333;DHT22;3199;49.102;8.856;2023-04-30T11:30:55;18.60;64.70
6333;DHT22;3199;49.102;8.856;2023-04-30T11:33:22;18.60;64.80
6333;DHT22;3199;49.102;8.856;2023-04-30T11:35:49;18.50;66.00
6333;DHT22;3199;49.102;8.856;2023-04-30T11:38:30;18.50;66.80
6333;DHT22;3199;49.102;8.856;2023-04-30T11:40:58;18.50;67.40
6333;DHT22;3199;49.102;8.856;2023-04-30T11:43:26;18.60;66.10
6333;DHT22;3199;49.102;8.856;2023-04-30T11:46:14;18.60;63.60
6333;DHT22;3199;49.102;8.856;2023-04-30T11:48:42;18.40;63.10
6333;DHT22;3199;49.102;8.856;2023-04-30T11:51:19;18.40;62.50
6333;DHT22;3199;49.102;8.856;2023-04-30T11:53:49;18.30;63.30
6333;DHT22;3199;49.102;8.856;2023-04-30T11:56:20;18.50;65.00
6333;DHT22;3199;49.102;8.856;2023-04-30T11:58:47;18.70;65.20
6333;DHT22;3199;49.102;8.856;2023-04-30T12:01:13;18.90;65.10
6333;DHT22;3199;49.102;8.856;2023-04-30T12:03:44;19.00;63.40
6333;DHT22;3199;49.102;8.856;2023-04-30T12:06:11;19.20;63.40
6333;DHT22;3199;49.102;8.856;2023-04-30T12:08:37;19.20;63.70
6333;DHT22;3199;49.102;8.856;2023-04-30T12:11:03;19.20;61.40
6333;DHT22;3199;49.102;8.856;2023-04-30T12:13:32;19.20;60.70
6333;DHT22;3199;49.102;8.856;2023-04-30T12:15:58;19.10;61.00
6333;DHT22;3199;49.102;8.856;2023-04-30T12:18:24;19.00;61.50
6333;DHT22;3199;49.102;8.856;2023-04-30T12:20:51;19.10;62.40
6333;DHT22;3199;49.102;8.856;2023-04-30T12:23:17;19.20;63.40
6333;DHT22;3199;49.102;8.856;2023-04-30T12:25:43;19.20;63.40
6333;DHT22;3199;49.102;8.856;2023-04-30T12:28:09;19.30;63.50
6333;DHT22;3199;49.102;8.856;2023-04-30T12:30:35;19.40;63.20
6333;DHT22;3199;49.102;8.856;2023-04-30T12:33:01;19.60;62.40
6333;DHT22;3199;49.102;8.856;2023-04-30T12:35:29;19.80;62.10
6333;DHT22;3199;49.102;8.856;2023-04-30T12:38:04;19.80;60.30
6333;DHT22;3199;49.102;8.856;2023-04-30T12:40:30;19.70;59.80
6333;DHT22;3199;49.102;8.856;2023-04-30T12:43:06;19.70;60.80
6333;DHT22;3199;49.102;8.856;2023-04-30T12:45:51;19.70;59.70
6333;DHT22;3199;49.102;8.856;2023-04-30T12:48:24;19.60;59.20
6333;DHT22;3199;49.102;8.856;2023-04-30T12:50:57;19.60;59.60
6333;DHT22;3199;49.102;8.856;2023-04-30T12:53:23;19.50;59.60
6333;DHT22;3199;49.102;8.856;2023-04-30T12:58:37;19.70;60.10
6333;DHT22;3199;49.102;8.856;2023-04-30T13:01:03;19.80;58.80
6333;DHT22;3199;49.102;8.856;2023-04-30T13:03:29;19.70;59.20
6333;DHT22;3199;49.102;8.856;2023-04-30T13:05:54;19.80;59.90
6333;DHT22;3199;49.102;8.856;2023-04-30T13:08:20;19.70;58.70
6333;DHT22;3199;49.102;8.856;2023-04-30T13:10:46;19.50;58.70
6333;DHT22;3199;49.102;8.856;2023-04-30T13:13:13;19.50;59.40
6333;DHT22;3199;49.102;8.856;2023-04-30T13:15:39;19.60;58.30
6333;DHT22;3199;49.102;8.856;2023-04-30T13:18:06;19.70;58.80
6333;DHT22;3199;49.102;8.856;2023-04-30T13:20:37;19.80;59.30
6333;DHT22;3199;49.102;8.856;2023-04-30T13:23:04;19.80;59.20
6333;DHT22;3199;49.102;8.856;2023-04-30T13:25:30;19.90;59.40
6333;DHT22;3199;49.102;8.856;2023-04-30T13:27:56;19.80;58.30
6333;DHT22;3199;49.102;8.856;2023-04-30T13:30:22;19.90;58.70
6333;DHT22;3199;49.102;8.856;2023-04-30T13:32:48;20.00;59.20
6333;DHT22;3199;49.102;8.856;2023-04-30T13:35:13;20.00;58.60
6333;DHT22;3199;49.102;8.856;2023-04-30T13:37:39;19.90;57.90
6333;DHT22;3199;49.102;8.856;2023-04-30T13:40:06;19.60;56.30
6333;DHT22;3199;49.102;8.856;2023-04-30T13:42:32;19.30;57.10
6333;DHT22;3199;49.102;8.856;2023-04-30T13:44:58;19.30;59.00
6333;DHT22;3199;49.102;8.856;2023-04-30T13:47:23;19.40;58.70
6333;DHT22;3199;49.102;8.856;2023-04-30T13:49:49;19.40;58.50
6333;DHT22;3199;49.102;8.856;2023-04-30T13:52:14;19.40;58.90
6333;DHT22;3199;49.102;8.856;2023-04-30T13:54:40;19.30;59.70
6333;DHT22;3199;49.102;8.856;2023-04-30T13:57:06;19.20;59.70
6333;DHT22;3199;49.102;8.856;2023-04-30T13:59:32;19.10;59.00
6333;DHT22;3199;49.102;8.856;2023-04-30T14:01:57;19.00;59.00
6333;DHT22;3199;49.102;8.856;2023-04-30T14:04:23;19.10;59.90
6333;DHT22;3199;49.102;8.856;2023-04-30T14:06:48;19.20;60.40
6333;DHT22;3199;49.102;8.856;2023-04-30T14:09:14;19.50;59.70
6333;DHT22;3199;49.102;8.856;2023-04-30T14:11:40;19.70;56.80
6333;DHT22;3199;49.102;8.856;2023-04-30T14:14:07;19.90;57.90
6333;DHT22;3199;49.102;8.856;2023-04-30T14:16:33;19.90;58.20
6333;DHT22;3199;49.102;8.856;2023-04-30T14:18:58;20.00;58.30
6333;DHT22;3199;49.102;8.856;2023-04-30T14:21:24;20.10;59.10
6333;DHT22;3199;49.102;8.856;2023-04-30T14:23:49;20.30;58.10
6333;DHT22;3199;49.102;8.856;2023-04-30T14:26:16;20.40;56.80
6333;DHT22;3199;49.102;8.856;2023-04-30T14:28:42;20.20;56.50
6333;DHT22;3199;49.102;8.856;2023-04-30T14:31:07;19.90;57.10
6333;DHT22;3199;49.102;8.856;2023-04-30T14:33:34;19.80;58.70
6333;DHT22;3199;49.102;8.856;2023-04-30T14:36:00;19.90;59.70
6333;DHT22;3199;49.102;8.856;2023-04-30T14:38:25;20.00;58.50
6333;DHT22;3199;49.102;8.856;2023-04-30T14:40:51;19.90;59.10
6333;DHT22;3199;49.102;8.856;2023-04-30T14:43:17;19.80;57.90
6333;DHT22;3199;49.102;8.856;2023-04-30T14:45:43;19.90;57.80
6333;DHT22;3199;49.102;8.856;2023-04-30T14:48:09;19.90;57.80
6333;DHT22;3199;49.102;8.856;2023-04-30T14:50:35;19.90;58.60
6333;DHT22;3199;49.102;8.856;2023-04-30T14:53:01;20.00;59.00
6333;DHT22;3199;49.102;8.856;2023-04-30T14:55:27;19.90;58.80
6333;DHT22;3199;49.102;8.856;2023-04-30T14:57:52;19.70;57.80
6333;DHT22;3199;49.102;8.856;2023-04-30T15:00:18;19.50;57.90
6333;DHT22;3199;49.102;8.856;2023-04-30T15:02:44;19.40;58.10
6333;DHT22;3199;49.102;8.856;2023-04-30T15:05:09;19.30;58.00
6333;DHT22;3199;49.102;8.856;2023-04-30T15:07:35;19.20;58.00
6333;DHT22;3199;49.102;8.856;2023-04-30T15:10:02;19.20;58.50
6333;DHT22;3199;49.102;8.856;2023-04-30T15:12:27;19.20;59.40
6333;DHT22;3199;49.102;8.856;2023-04-30T15:14:53;19.20;58.70
6333;DHT22;3199;49.102;8.856;2023-04-30T15:17:19;19.20;58.20
6333;DHT22;3199;49.102;8.856;2023-04-30T15:19:44;19.20;58.90
6333;DHT22;3199;49.102;8.856;2023-04-30T15:22:10;19.40;60.70
6333;DHT22;3199;49.102;8.856;2023-04-30T15:24:35;19.40;59.50
6333;DHT22;3199;49.102;8.856;2023-04-30T15:27:01;19.50;59.70
6333;DHT22;3199;49.102;8.856;2023-04-30T15:29:26;19.50;59.90
6333;DHT22;3199;49.102;8.856;2023-04-30T15:31:53;19.40;59.80
6333;DHT22;3199;49.102;8.856;2023-04-30T15:34:20;19.40;59.30
6333;DHT22;3199;49.102;8.856;2023-04-30T15:36:47;19.30;59.10
6333;DHT22;3199;49.102;8.856;2023-04-30T15:39:13;19.20;58.20
6333;DHT22;3199;49.102;8.856;2023-04-30T15:41:38;19.20;57.80
6333;DHT22;3199;49.102;8.856;2023-04-30T15:44:04;19.10;58.00
6333;DHT22;3199;49.102;8.856;2023-04-30T15:46:30;19.10;57.80
6333;DHT22;3199;49.102;8.856;2023-04-30T15:48:55;19.00;58.70
6333;DHT22;3199;49.102;8.856;2023-04-30T15:51:21;19.00;59.10
6333;DHT22;3199;49.102;8.856;2023-04-30T15:53:47;19.00;59.90
6333;DHT22;3199;49.102;8.856;2023-04-30T15:56:12;19.10;61.00
6333;DHT22;3199;49.102;8.856;2023-04-30T15:58:38;19.20;61.30
6333;DHT22;3199;49.102;8.856;2023-04-30T16:01:04;19.20;60.70
6333;DHT22;3199;49.102;8.856;2023-04-30T16:03:30;19.20;60.00
6333;DHT22;3199;49.102;8.856;2023-04-30T16:05:56;19.20;60.30
6333;DHT22;3199;49.102;8.856;2023-04-30T16:08:22;19.20;59.90
6333;DHT22;3199;49.102;8.856;2023-04-30T16:10:47;19.10;60.20
6333;DHT22;3199;49.102;8.856;2023-04-30T16:13:13;19.00;61.50
6333;DHT22;3199;49.102;8.856;2023-04-30T16:15:38;19.00;62.40
6333;DHT22;3199;49.102;8.856;2023-04-30T16:18:04;19.00;62.70
6333;DHT22;3199;49.102;8.856;2023-04-30T16:20:29;19.00;63.20
6333;DHT22;3199;49.102;8.856;2023-04-30T16:22:56;19.00;62.50